Time;durP1;ratioP1;P1;durP2;ratioP2;P2;SDS_P1;SDS_P2;PMS_P1;PMS_P2;Temp;Humidity;BMP_temperature;BMP_pressure;BME280_temperature;BME280_humidity;BME280_pressure;Samples;Min_cycle;Max_cycle;Signal;HPM_P1;HPM_P2
2023/06/27 00:01:39;;;;;;;14.73;4.35;;;;;;;15.49;85.19;101846.28;5058436;28;20031;-73
2023/06/27 00:04:05;;;;;;;16.60;4.72;;;;;;;15.49;84.74;101843.56;5058604;28;20311;-74
2023/06/27 00:06:31;;;;;;;18.63;4.80;;;;;;;15.51;85.49;101846.16;5061126;28;20013;-74
2023/06/27 00:08:56;;;;;;;16.88;4.55;;;;;;;15.51;85.00;101844.31;5056228;28;20057;-76
2023/06/27 00:11:21;;;;;;;16.52;4.80;;;;;;;15.51;84.79;101840.75;5057715;28;20013;-74
2023/06/27 00:13:48;;;;;;;18.95;5.13;;;;;;;15.52;84.13;101837.03;5064501;28;20036;-74
2023/06/27 00:16:14;;;;;;;22.55;5.32;;;;;;;15.52;84.17;101837.91;5057576;28;20055;-75
2023/06/27 00:18:42;;;;;;;15.02;5.13;;;;;;;15.50;84.79;101834.44;5058474;28;20037;-73
2023/06/27 00:21:07;;;;;;;17.95;4.53;;;;;;;15.49;84.76;101834.56;5062315;28;20031;-75
2023/06/27 00:23:33;;;;;;;19.35;5.65;;;;;;;15.46;84.76;101827.56;5053977;28;20056;-76
2023/06/27 00:26:00;;;;;;;15.00;4.78;;;;;;;15.43;85.91;101833.19;5049984;28;20029;-75
2023/06/27 00:28:25;;;;;;;14.45;4.10;;;;;;;15.39;86.08;101850.69;5057887;28;20031;-76
2023/06/27 00:30:51;;;;;;;12.48;4.10;;;;;;;15.36;86.07;101843.66;5047140;28;20049;-76
2023/06/27 00:33:16;;;;;;;15.38;4.60;;;;;;;15.32;85.41;101841.31;5055203;28;20037;-76
2023/06/27 00:35:41;;;;;;;13.45;5.13;;;;;;;15.28;86.16;101840.69;5056017;28;20056;-76
2023/06/27 00:38:07;;;;;;;20.63;5.32;;;;;;;15.26;86.28;101834.53;5060512;28;20040;-77
2023/06/27 00:40:32;;;;;;;14.07;5.25;;;;;;;15.26;86.61;101831.81;5054093;28;20028;-76
2023/06/27 00:42:57;;;;;;;18.17;5.45;;;;;;;15.28;85.08;101835.25;5060491;28;20048;-78
2023/06/27 00:45:23;;;;;;;18.15;5.30;;;;;;;15.32;86.13;101836.75;5051383;28;20028;-76
2023/06/27 00:47:53;;;;;;;22.77;4.53;;;;;;;15.30;86.27;101838.72;5056217;28;20116;-76
2023/06/27 00:50:21;;;;;;;;;;;;;;;15.37;83.84;101840.00;5054870;28;20044;-76
2023/06/27 00:52:47;;;;;;;18.80;4.60;;;;;;;15.30;86.25;101841.44;5062395;28;19955;-77
2023/06/27 00:55:12;;;;;;;15.88;4.88;;;;;;;15.26;85.18;101839.94;5053007;28;20021;-78
2023/06/27 00:57:39;;;;;;;17.85;4.63;;;;;;;15.25;86.19;101840.91;5053777;28;20033;-78
2023/06/27 01:00:06;;;;;;;13.98;4.85;;;;;;;15.23;85.64;101842.91;5061160;28;20037;-76
2023/06/27 01:02:31;;;;;;;15.98;5.03;;;;;;;15.22;86.73;101841.16;5056743;28;20079;-76
2023/06/27 01:04:56;;;;;;;17.27;4.78;;;;;;;15.23;86.99;101842.91;5064865;28;20025;-76
2023/06/27 01:07:40;;;;;;;13.55;4.45;;;;;;;15.22;86.80;101843.03;5059429;28;20032;-76
2023/06/27 01:10:41;;;;;;;19.15;5.13;;;;;;;15.22;85.61;101841.16;5059459;28;20059;-77
2023/06/27 01:13:13;;;;;;;19.90;5.55;;;;;;;15.18;86.29;101842.38;5015380;28;20073;-76
2023/06/27 01:15:40;;;;;;;14.00;4.22;;;;;;;15.16;88.12;101842.50;5063749;28;20041;-76
2023/06/27 01:18:06;;;;;;;13.93;4.22;;;;;;;15.14;88.34;101840.88;5066918;28;20044;-76
2023/06/27 01:20:32;;;;;;;15.88;4.57;;;;;;;15.11;86.30;101831.16;5064166;28;20033;-77
2023/06/27 01:23:13;;;;;;;17.08;4.55;;;;;;;15.12;87.03;101845.56;5058042;28;20012;-77
2023/06/27 01:25:38;;;;;;;18.23;5.70;;;;;;;15.09;86.41;101834.97;5057497;28;20041;-76
2023/06/27 01:28:05;;;;;;;16.02;4.15;;;;;;;15.08;86.63;101844.06;5069963;28;20067;-76
2023/06/27 01:30:33;;;;;;;16.35;5.03;;;;;;;15.10;87.23;101844.81;5060399;28;20021;-76
2023/06/27 01:33:04;;;;;;;15.07;4.68;;;;;;;15.08;89.12;101844.06;5062094;28;20040;-77
2023/06/27 01:35:56;;;;;;;13.25;4.10;;;;;;;15.09;86.86;101840.38;5086169;28;20036;-78
2023/06/27 01:38:31;;;;;;;17.60;4.55;;;;;;;15.06;87.28;101838.78;5077533;28;20063;-77
2023/06/27 01:40:58;;;;;;;12.85;4.57;;;;;;;15.04;87.35;101848.88;5067741;28;20017;-77
2023/06/27 01:43:25;;;;;;;17.38;4.28;;;;;;;15.02;88.47;101842.69;5078973;28;20056;-76
2023/06/27 01:45:51;;;;;;;17.83;5.60;;;;;;;15.00;88.64;101837.38;5081312;28;20032;-77
2023/06/27 01:48:17;;;;;;;13.82;4.47;;;;;;;14.99;87.75;101841.09;5078887;28;20017;-77
2023/06/27 01:50:42;;;;;;;13.52;4.28;;;;;;;15.02;89.08;101835.44;5068781;28;20021;-78
2023/06/27 01:53:08;;;;;;;13.32;4.72;;;;;;;15.06;88.85;101833.34;5064023;28;20024;-78
2023/06/27 01:55:33;;;;;;;14.35;4.60;;;;;;;15.07;88.34;101828.81;5073847;28;20722;-79
2023/06/27 01:57:59;;;;;;;20.63;4.93;;;;;;;15.09;87.52;101835.81;5056418;28;20055;-78
2023/06/27 02:00:25;;;;;;;13.70;4.13;;;;;;;15.10;88.24;101828.59;5064715;28;20097;-77
2023/06/27 02:02:50;;;;;;;15.82;4.30;;;;;;;15.09;87.12;101837.69;5083803;28;20025;-77
2023/06/27 02:05:15;;;;;;;17.23;4.45;;;;;;;15.08;87.68;101838.66;5086735;28;20028;-77
2023/06/27 02:07:41;;;;;;;16.55;4.70;;;;;;;15.08;88.34;101831.41;5079842;28;20021;-76
2023/06/27 02:10:07;;;;;;;19.23;4.95;;;;;;;15.07;87.95;101816.13;5067086;28;20029;-77
2023/06/27 02:12:32;;;;;;;15.25;5.22;;;;;;;15.07;87.90;101821.56;5085023;28;20034;-77
2023/06/27 02:14:57;;;;;;;18.83;4.78;;;;;;;15.07;88.91;101824.25;5086188;28;20052;-77
2023/06/27 02:17:23;;;;;;;15.15;4.13;;;;;;;15.09;88.49;101821.44;5078764;28;20033;-77
2023/06/27 02:19:48;;;;;;;13.98;4.20;;;;;;;15.09;88.32;101830.41;5066261;28;20104;-77
2023/06/27 02:22:13;;;;;;;16.70;5.00;;;;;;;15.09;87.71;101821.44;5068399;28;20091;-77
2023/06/27 02:24:39;;;;;;;16.52;4.43;;;;;;;15.08;87.79;101817.00;5083494;28;20495;-77
2023/06/27 02:27:04;;;;;;;21.15;5.00;;;;;;;15.10;88.55;101820.47;5079399;28;20032;-78
2023/06/27 02:29:30;;;;;;;15.43;4.30;;;;;;;15.08;88.80;101823.28;5069965;28;20360;-77
2023/06/27 02:31:56;;;;;;;17.35;4.85;;;;;;;15.06;88.65;101821.66;5073878;28;20066;-76
2023/06/27 02:34:21;;;;;;;15.30;4.85;;;;;;;15.05;89.64;101814.53;5083032;28;20099;-78
2023/06/27 02:36:46;;;;;;;17.08;4.60;;;;;;;15.06;88.75;101813.53;5067214;28;20092;-79
2023/06/27 02:39:12;;;;;;;11.93;4.05;;;;;;;15.05;88.63;101812.66;5082527;28;20036;-77
2023/06/27 02:41:37;;;;;;;14.80;4.60;;;;;;;15.05;88.71;101812.66;5083670;28;20039;-77
2023/06/27 02:44:02;;;;;;;14.68;4.95;;;;;;;15.06;89.16;101810.84;5077569;28;20023;-78
2023/06/27 02:46:28;;;;;;;16.48;4.13;;;;;;;15.05;89.83;101806.41;5081360;28;20025;-76
2023/06/27 02:48:53;;;;;;;18.95;4.63;;;;;;;15.03;88.74;101811.94;5083107;28;20024;-76
2023/06/27 02:51:20;;;;;;;21.13;5.10;;;;;;;15.05;89.12;101814.53;5064315;28;20029;-78
2023/06/27 02:53:46;;;;;;;17.38;4.68;;;;;;;15.03;88.90;101809.22;5064190;28;20119;-77
2023/06/27 02:56:11;;;;;;;21.52;5.28;;;;;;;15.01;89.13;101806.63;5063735;28;20033;-78
2023/06/27 02:58:36;;;;;;;16.35;4.22;;;;;;;15.02;88.40;101804.78;5061278;28;20016;-76
2023/06/27 03:01:03;;;;;;;16.55;5.00;;;;;;;15.01;88.95;101803.06;5068186;28;20355;-76
2023/06/27 03:03:29;;;;;;;14.35;4.10;;;;;;;15.01;88.86;101806.63;5059098;28;20025;-77
2023/06/27 03:05:54;;;;;;;17.98;4.57;;;;;;;14.99;89.01;101819.44;5083922;28;20067;-77
2023/06/27 03:08:20;;;;;;;15.52;4.63;;;;;;;15.00;88.66;101821.16;5066202;28;20024;-77
2023/06/27 03:10:45;;;;;;;15.77;4.82;;;;;;;14.97;91.06;101815.13;5062660;28;20051;-77
2023/06/27 03:13:11;;;;;;;11.88;3.97;;;;;;;14.89;91.33;101806.72;5065396;28;20155;-77
2023/06/27 03:15:36;;;;;;;16.67;4.55;;;;;;;14.86;90.51;101813.22;5077299;28;20072;-76
2023/06/27 03:18:01;;;;;;;15.57;4.55;;;;;;;14.80;90.62;101819.97;5084635;28;20009;-77
2023/06/27 03:20:27;;;;;;;17.17;4.65;;;;;;;14.79;91.18;101823.66;5064376;28;20088;-77
2023/06/27 03:22:52;;;;;;;15.93;4.75;;;;;;;14.77;91.73;101822.91;5079759;28;20033;-78
2023/06/27 03:25:17;;;;;;;13.75;4.65;;;;;;;14.78;91.88;101821.91;5072247;28;20055;-79
2023/06/27 03:27:43;;;;;;;13.38;4.45;;;;;;;14.75;92.02;101824.00;5078202;28;20025;-76
2023/06/27 03:30:09;;;;;;;17.33;5.50;;;;;;;14.68;92.28;101815.47;5087276;28;20089;-74
2023/06/27 03:32:34;;;;;;;15.75;4.60;;;;;;;14.68;92.65;101824.47;5075795;28;20456;-73
2023/06/27 03:35:00;;;;;;;16.73;4.55;;;;;;;14.65;92.99;101824.69;5081685;28;20044;-74
2023/06/27 03:37:26;;;;;;;19.55;4.72;;;;;;;14.62;93.71;101822.22;5077843;28;20036;-75
2023/06/27 03:39:52;;;;;;;17.40;4.70;;;;;;;14.59;93.76;101822.41;5069434;28;20024;-74
2023/06/27 03:42:18;;;;;;;18.38;4.80;;;;;;;14.57;94.62;101818.97;5075403;28;20036;-74
2023/06/27 03:44:43;;;;;;;19.83;4.90;;;;;;;14.55;94.66;101820.91;5083765;28;20051;-76
2023/06/27 03:47:09;;;;;;;12.98;4.45;;;;;;;14.53;94.28;101825.59;5056958;28;20345;-74
2023/06/27 03:49:34;;;;;;;15.70;5.03;;;;;;;14.54;93.17;101824.63;5080815;28;20025;-75
2023/06/27 03:51:59;;;;;;;16.40;4.82;;;;;;;14.55;94.24;101822.75;5082485;28;20039;-75
2023/06/27 03:54:25;;;;;;;17.58;4.40;;;;;;;14.55;94.63;101830.88;5060319;28;20016;-76
2023/06/27 03:56:50;;;;;;;15.35;4.45;;;;;;;14.51;94.47;101828.41;5050964;28;20051;-74
2023/06/27 03:59:16;;;;;;;20.90;5.35;;;;;;;14.48;94.61;101823.22;5078537;28;20271;-76
2023/06/27 04:01:41;;;;;;;20.05;4.97;;;;;;;14.45;94.45;101823.47;5079905;28;20029;-75
2023/06/27 04:04:10;;;;;;;16.63;4.85;;;;;;;14.45;94.72;101826.16;5081129;28;20084;-74
2023/06/27 04:06:35;;;;;;;19.00;5.00;;;;;;;14.45;95.33;101825.28;5078176;28;20028;-74
2023/06/27 04:09:04;;;;;;;14.95;4.60;;;;;;;14.47;95.06;101823.34;5074717;28;20035;-76
2023/06/27 04:11:31;;;;;;;19.65;4.97;;;;;;;14.45;94.97;101822.56;5084814;28;20116;-74
2023/06/27 04:13:58;;;;;;;19.02;4.43;;;;;;;14.44;95.28;101818.16;5059597;28;20089;-76
2023/06/27 04:16:24;;;;;;;16.65;5.45;;;;;;;14.45;94.97;101823.47;5080394;28;20343;-74
2023/06/27 04:18:49;;;;;;;17.10;4.78;;;;;;;14.43;95.47;101825.41;5059416;28;20368;-74
2023/06/27 04:21:15;;;;;;;18.75;5.80;;;;;;;14.43;95.37;101819.97;5061041;28;20088;-74
2023/06/27 04:23:40;;;;;;;23.60;4.90;;;;;;;14.44;95.34;101818.16;5066581;28;20036;-76
2023/06/27 04:26:07;;;;;;;18.60;5.80;;;;;;;14.45;95.17;101825.28;5079424;28;20059;-75
2023/06/27 04:28:33;;;;;;;16.58;5.00;;;;;;;14.48;94.96;101825.03;5085195;28;20029;-74
2023/06/27 04:31:00;;;;;;;19.88;5.05;;;;;;;14.46;95.24;101825.16;5082753;28;20043;-74
2023/06/27 04:33:27;;;;;;;16.85;4.57;;;;;;;14.44;95.28;101827.13;5080939;28;20045;-74
2023/06/27 04:35:54;;;;;;;17.92;5.30;;;;;;;14.39;95.82;101825.75;5073093;28;20053;-75
2023/06/27 04:38:19;;;;;;;18.95;4.70;;;;;;;14.39;95.45;101841.97;5073531;28;20050;-74
2023/06/27 04:40:44;;;;;;;17.42;5.13;;;;;;;14.36;96.40;101832.22;5085856;28;20029;-75
2023/06/27 04:43:10;;;;;;;17.05;5.63;;;;;;;14.38;96.10;101829.41;5083087;28;20040;-75
2023/06/27 04:45:35;;;;;;;19.67;5.57;;;;;;;14.34;96.69;101835.06;5085203;28;20029;-77
2023/06/27 04:48:00;;;;;;;20.48;6.03;;;;;;;14.33;97.39;101838.75;5078517;28;20042;-74
2023/06/27 04:50:26;;;;;;;19.20;5.72;;;;;;;14.32;97.01;101842.44;5087554;28;20033;-75
2023/06/27 04:52:51;;;;;;;16.33;5.50;;;;;;;14.31;96.52;101845.25;5081422;28;20036;-76
2023/06/27 04:55:16;;;;;;;19.60;5.10;;;;;;;14.30;97.50;101841.66;5059327;28;20036;-75
2023/06/27 04:57:42;;;;;;;19.35;5.68;;;;;;;14.30;97.26;101844.34;5067993;28;20025;-75
2023/06/27 05:00:10;;;;;;;20.67;6.20;;;;;;;14.31;97.19;101840.69;5072563;28;20029;-74
2023/06/27 05:02:36;;;;;;;19.20;6.07;;;;;;;14.33;97.70;101841.47;5075363;28;20072;-75
2023/06/27 05:05:02;;;;;;;19.60;6.10;;;;;;;14.34;97.45;101845.88;5069164;28;20069;-76
2023/06/27 05:07:27;;;;;;;17.35;5.40;;;;;;;14.42;97.35;101841.75;5081639;28;20019;-74
2023/06/27 05:09:52;;;;;;;19.63;5.57;;;;;;;14.49;97.76;101843.00;5081927;28;20043;-74
2023/06/27 05:12:17;;;;;;;16.63;5.32;;;;;;;14.58;97.83;101841.47;5084650;28;20020;-74
2023/06/27 05:14:43;;;;;;;24.70;6.22;;;;;;;14.65;97.93;101846.31;5083272;28;20025;-75
2023/06/27 05:17:08;;;;;;;17.73;5.13;;;;;;;14.77;97.39;101847.25;5087941;28;20090;-76
2023/06/27 05:19:33;;;;;;;25.08;6.85;;;;;;;14.86;97.11;101840.28;5080426;28;20009;-74
2023/06/27 05:21:59;;;;;;;19.58;5.53;;;;;;;14.96;97.43;101849.44;5085707;28;20042;-75
2023/06/27 05:24:24;;;;;;;21.25;6.07;;;;;;;15.01;97.04;101844.53;5083756;28;20096;-75
2023/06/27 05:26:49;;;;;;;20.35;6.25;;;;;;;15.09;97.58;101845.81;5067592;28;20039;-75
2023/06/27 05:29:15;;;;;;;19.58;6.70;;;;;;;15.14;97.58;101843.59;5082780;28;20040;-75
2023/06/27 05:31:40;;;;;;;17.45;5.45;;;;;;;15.17;97.28;101849.66;5082464;28;20045;-74
2023/06/27 05:34:07;;;;;;;17.50;5.35;;;;;;;15.26;97.16;101853.50;5069236;28;20037;-74
2023/06/27 05:36:33;;;;;;;20.48;6.03;;;;;;;15.32;97.25;101850.31;5085592;28;20048;-76
2023/06/27 05:38:58;;;;;;;21.00;5.93;;;;;;;15.38;97.19;101844.41;5067318;28;20464;-75
2023/06/27 05:41:24;;;;;;;20.08;5.78;;;;;;;15.46;97.06;101843.81;5068863;28;20084;-74
2023/06/27 05:43:49;;;;;;;18.65;5.97;;;;;;;15.55;97.41;101845.81;5080443;28;20024;-75
2023/06/27 05:46:15;;;;;;;22.42;6.95;;;;;;;15.61;97.32;101846.28;5080491;28;20025;-76
2023/06/27 05:48:40;;;;;;;20.00;6.25;;;;;;;15.69;97.19;101839.28;5085231;28;20013;-76
2023/06/27 05:51:06;;;;;;;20.40;6.78;;;;;;;15.77;96.50;101845.94;5066615;28;20250;-74
2023/06/27 05:53:32;;;;;;;20.05;6.97;;;;;;;15.83;96.50;101840.94;5063728;28;20027;-75
2023/06/27 05:55:57;;;;;;;19.65;5.88;;;;;;;15.90;96.59;101839.47;5057611;28;20104;-76
2023/06/27 05:58:22;;;;;;;19.90;6.18;;;;;;;15.97;97.31;101842.53;5056964;28;20017;-74
2023/06/27 06:00:48;;;;;;;22.65;6.60;;;;;;;16.02;96.32;101843.03;5072343;28;20196;-76
2023/06/27 06:03:13;;;;;;;23.55;6.53;;;;;;;16.05;96.33;101834.63;5070240;28;20020;-75
2023/06/27 06:05:39;;;;;;;21.58;7.05;;;;;;;16.10;95.97;101841.53;5081765;28;20036;-75
2023/06/27 06:08:04;;;;;;;20.80;6.65;;;;;;;16.19;96.02;101846.22;5082051;28;20032;-74
2023/06/27 06:10:29;;;;;;;29.15;7.32;;;;;;;16.23;96.52;101836.84;5066994;28;20068;-74
2023/06/27 06:12:55;;;;;;;24.58;7.15;;;;;;;16.30;95.13;101842.66;5058851;28;20052;-76
2023/06/27 06:15:20;;;;;;;22.10;7.03;;;;;;;16.35;95.03;101838.53;5049577;28;20025;-76
2023/06/27 06:17:45;;;;;;;21.67;7.32;;;;;;;16.38;95.56;101827.47;5032439;28;20024;-76
2023/06/27 06:20:11;;;;;;;19.88;7.25;;;;;;;16.47;96.18;101843.94;5054449;28;20032;-76
2023/06/27 06:22:37;;;;;;;24.02;6.90;;;;;;;16.53;95.35;101844.31;5042788;28;20068;-75
2023/06/27 06:25:03;;;;;;;22.67;7.10;;;;;;;16.60;94.30;101850.97;5059629;28;20039;-76
2023/06/27 06:27:29;;;;;;;23.55;6.85;;;;;;;16.67;96.17;101845.88;5036445;28;20130;-76
2023/06/27 06:29:54;;;;;;;19.80;7.47;;;;;;;16.73;94.43;101844.50;5060270;28;20097;-76
2023/06/27 06:32:20;;;;;;;21.90;6.65;;;;;;;16.79;94.08;101852.13;5030849;28;20060;-76
2023/06/27 06:34:45;;;;;;;21.10;7.55;;;;;;;16.87;94.81;101848.78;5038222;28;20056;-76
2023/06/27 06:37:10;;;;;;;18.65;6.03;;;;;;;16.94;95.51;101842.72;5041056;28;20029;-76
2023/06/27 06:39:36;;;;;;;19.67;6.60;;;;;;;17.04;95.99;101850.97;5038344;28;20029;-76
2023/06/27 06:42:01;;;;;;;22.40;6.50;;;;;;;17.10;93.79;101860.41;5038507;28;20121;-76
2023/06/27 06:44:27;;;;;;;24.88;7.80;;;;;;;17.15;92.37;101865.50;5036488;28;20036;-77
2023/06/27 06:46:53;;;;;;;27.08;7.45;;;;;;;17.22;93.26;101863.94;5052235;28;20029;-75
2023/06/27 06:49:19;;;;;;;20.70;7.20;;;;;;;17.29;93.36;101862.44;5042499;28;20163;-75
2023/06/27 06:51:44;;;;;;;23.13;7.97;;;;;;;17.33;91.82;101860.31;5035506;28;20115;-75
2023/06/27 06:54:09;;;;;;;22.67;7.68;;;;;;;17.41;93.73;101864.09;5035343;28;20102;-76
2023/06/27 06:56:34;;;;;;;23.10;7.65;;;;;;;17.49;92.60;101855.28;5028264;28;20175;-76
2023/06/27 06:59:00;;;;;;;20.08;7.00;;;;;;;17.55;91.59;101862.03;5037105;28;20532;-76
2023/06/27 07:01:28;;;;;;;20.23;7.07;;;;;;;17.61;89.29;101866.94;5041602;28;20025;-75
2023/06/27 07:03:53;;;;;;;23.40;7.50;;;;;;;17.65;90.73;101862.97;5037856;28;20170;-75
2023/06/27 07:06:19;;;;;;;20.10;4.60;;;;;;;17.70;87.89;101854.41;5044346;28;20060;-75
2023/06/27 07:08:44;;;;;;;17.00;5.15;;;;;;;17.74;87.28;101864.84;5038992;28;20115;-75
2023/06/27 07:11:10;;;;;;;21.30;8.27;;;;;;;17.82;89.50;101861.50;5033991;28;20052;-75
2023/06/27 07:13:35;;;;;;;14.60;4.55;;;;;;;17.87;86.86;101866.53;5036626;28;20116;-75
2023/06/27 07:16:00;;;;;;;20.27;7.25;;;;;;;17.92;85.80;101869.72;5040055;28;20037;-75
2023/06/27 07:18:26;;;;;;;23.00;7.50;;;;;;;17.99;87.08;101871.78;5039602;28;20033;-76
2023/06/27 07:20:51;;;;;;;21.05;5.97;;;;;;;18.09;86.26;101879.09;5040610;28;20031;-76
2023/06/27 07:23:16;;;;;;;18.75;5.68;;;;;;;18.16;85.83;101872.97;5032538;28;20469;-76
2023/06/27 07:25:42;;;;;;;18.45;6.53;;;;;;;18.22;80.66;101868.00;5030679;28;20029;-76
2023/06/27 07:28:07;;;;;;;19.83;6.70;;;;;;;18.29;83.13;101871.88;5035861;28;20041;-76
2023/06/27 07:30:33;;;;;;;18.77;4.95;;;;;;;18.35;79.49;101865.88;5040623;28;20040;-76
2023/06/27 07:32:58;;;;;;;18.90;5.30;;;;;;;18.45;80.36;101872.22;5044033;28;20030;-76
2023/06/27 07:35:23;;;;;;;19.25;5.68;;;;;;;18.52;77.52;101864.34;5047573;28;20056;-77
2023/06/27 07:37:49;;;;;;;22.60;6.35;;;;;;;18.58;77.60;101862.91;5065764;28;20028;-76
2023/06/27 07:40:14;;;;;;;15.43;5.05;;;;;;;18.63;75.07;101860.66;5052773;28;20032;-75
2023/06/27 07:42:39;;;;;;;14.75;4.35;;;;;;;18.70;77.71;101864.53;5063316;28;20761;-77
2023/06/27 07:45:05;;;;;;;19.05;5.22;;;;;;;18.75;74.12;101866.81;5048420;28;20017;-76
2023/06/27 07:47:31;;;;;;;18.60;5.00;;;;;;;18.79;72.82;101863.66;5037360;28;20025;-76
2023/06/27 07:49:56;;;;;;;14.95;4.35;;;;;;;18.84;73.49;101868.69;5039512;28;20055;-76
2023/06/27 07:52:22;;;;;;;16.20;4.50;;;;;;;18.90;74.54;101853.69;5069783;28;20028;-76
2023/06/27 07:54:47;;;;;;;13.52;3.90;;;;;;;18.96;72.86;101864.88;5064483;28;20036;-77
2023/06/27 07:57:12;;;;;;;14.13;3.70;;;;;;;18.99;72.31;101858.25;5051011;28;20076;-76
2023/06/27 07:59:37;;;;;;;15.57;4.40;;;;;;;19.03;71.86;101856.97;5055197;28;20136;-76
2023/06/27 08:02:03;;;;;;;12.45;3.30;;;;;;;19.05;67.90;101857.72;5023890;28;20038;-76
2023/06/27 08:04:28;;;;;;;12.88;3.60;;;;;;;19.12;68.34;101857.97;5023856;28;20503;-77
2023/06/27 08:06:54;;;;;;;14.80;4.25;;;;;;;19.18;69.32;101863.72;5047576;28;20484;-77
2023/06/27 08:09:22;;;;;;;17.55;3.75;;;;;;;19.26;69.89;101864.88;5049207;28;20601;-77
2023/06/27 08:11:47;;;;;;;9.98;3.08;;;;;;;19.31;66.06;101862.56;5049696;28;20021;-76
2023/06/27 08:14:12;;;;;;;11.93;3.50;;;;;;;19.36;68.59;101865.72;5061138;28;20044;-77
2023/06/27 08:16:38;;;;;;;11.18;3.05;;;;;;;19.40;64.84;101861.69;5053074;28;20040;-77
2023/06/27 08:19:03;;;;;;;17.45;3.55;;;;;;;19.44;65.44;101857.66;5066981;28;20031;-78
2023/06/27 08:21:28;;;;;;;8.02;2.90;;;;;;;19.51;64.84;101860.66;5045088;28;20077;-77
2023/06/27 08:23:54;;;;;;;14.93;3.38;;;;;;;19.52;65.26;101865.97;5049518;28;20024;-76
2023/06/27 08:26:19;;;;;;;10.05;3.33;;;;;;;19.60;65.28;101856.19;5067942;28;20033;-77
2023/06/27 08:28:45;;;;;;;12.43;3.78;;;;;;;19.66;65.90;101852.88;5069108;28;20642;-76
2023/06/27 08:31:11;;;;;;;13.60;2.83;;;;;;;19.71;66.52;101862.34;5071559;28;20033;-76
2023/06/27 08:33:37;;;;;;;11.68;3.30;;;;;;;19.73;64.83;101856.72;5059661;28;20049;-77
2023/06/27 08:36:02;;;;;;;9.70;3.28;;;;;;;19.77;67.21;101855.44;5045385;28;20867;-74
2023/06/27 08:38:28;;;;;;;17.52;3.88;;;;;;;19.79;64.68;101856.16;5071304;28;20063;-76
2023/06/27 08:40:54;;;;;;;13.60;3.30;;;;;;;19.80;65.13;101849.72;5066045;28;20081;-77
2023/06/27 08:43:20;;;;;;;12.38;3.47;;;;;;;19.84;67.49;101859.31;5069279;28;20028;-77
2023/06/27 08:45:48;;;;;;;14.45;3.78;;;;;;;19.83;65.84;101857.59;5067164;28;20088;-76
2023/06/27 08:48:14;;;;;;;11.73;3.38;;;;;;;19.83;62.49;101851.28;5046018;28;20029;-77
2023/06/27 08:50:41;;;;;;;11.98;3.70;;;;;;;19.77;63.16;101849.13;5065753;28;20098;-76
2023/06/27 08:53:10;;;;;;;11.63;3.30;;;;;;;19.74;61.82;101848.41;5070624;28;20048;-76
2023/06/27 08:55:49;;;;;;;8.43;3.37;;;;;;;19.73;63.96;101843.09;5044952;28;20032;-74
2023/06/27 08:58:15;;;;;;;9.50;3.42;;;;;;;19.70;63.12;101846.13;5038842;28;20033;-76
2023/06/27 09:00:44;;;;;;;9.38;3.58;;;;;;;19.68;65.05;101849.00;5045994;28;20024;-77
2023/06/27 09:03:10;;;;;;;13.93;3.67;;;;;;;19.66;64.92;101841.97;5049573;28;20073;-76
2023/06/27 09:05:36;;;;;;;12.68;3.85;;;;;;;19.64;64.42;101841.25;5070900;28;20037;-76
2023/06/27 09:08:02;;;;;;;15.35;3.72;;;;;;;19.64;63.38;101839.38;5047569;28;20024;-74
2023/06/27 09:10:28;;;;;;;13.93;3.88;;;;;;;19.64;63.90;101844.84;5048019;28;20032;-77
2023/06/27 09:12:56;;;;;;;15.15;3.63;;;;;;;19.66;60.57;101853.72;5071253;28;20064;-75
2023/06/27 09:15:22;;;;;;;8.77;2.55;;;;;;;19.69;60.97;101855.31;5054560;28;20031;-76
2023/06/27 09:17:48;;;;;;;7.63;2.58;;;;;;;19.69;59.27;101849.84;5073478;28;20033;-76
2023/06/27 09:20:17;;;;;;;12.73;3.00;;;;;;;19.70;59.91;101840.66;5074750;28;20044;-74
2023/06/27 09:22:42;;;;;;;10.38;2.78;;;;;;;19.72;60.68;101844.09;5073270;28;20051;-77
2023/06/27 09:25:15;;;;;;;10.30;2.40;;;;;;;19.74;62.15;101847.56;5056906;28;20041;-75
2023/06/27 09:27:42;;;;;;;11.52;2.60;;;;;;;19.74;60.89;101847.56;5050950;28;20041;-74
2023/06/27 09:30:09;;;;;;;10.80;2.42;;;;;;;19.78;58.03;101854.47;5069502;28;20043;-76
2023/06/27 09:32:50;;;;;;;14.25;2.45;;;;;;;19.84;59.30;101844.81;5056263;28;20032;-78
2023/06/27 09:35:16;;;;;;;15.73;2.97;;;;;;;19.96;59.34;101845.50;5027921;28;20049;-75
2023/06/27 09:37:41;;;;;;;12.70;3.10;;;;;;;20.07;57.50;101850.75;5033860;28;20085;-75
2023/06/27 09:40:18;;;;;;;10.02;2.65;;;;;;;20.12;57.83;101847.56;5031953;28;20037;-76
2023/06/27 09:42:54;;;;;;;7.97;2.70;;;;;;;20.20;56.89;101856.72;5049445;28;20029;-74
2023/06/27 09:45:20;;;;;;;5.53;2.08;;;;;;;20.25;56.88;101854.41;5041584;28;20962;-74
2023/06/27 09:47:52;;;;;;;14.73;2.83;;;;;;;20.31;56.22;101860.25;5046582;28;20017;-75
2023/06/27 09:50:30;;;;;;;6.75;2.08;;;;;;;20.36;56.51;101857.94;5053847;28;20025;-74
2023/06/27 09:53:01;;;;;;;11.05;2.58;;;;;;;20.42;54.28;101863.66;5033453;28;20032;-76
2023/06/27 09:55:27;;;;;;;10.32;2.30;;;;;;;20.54;55.04;101861.56;5029641;28;20613;-74
2023/06/27 09:57:52;;;;;;;7.15;2.20;;;;;;;20.59;52.45;101861.94;5033617;28;20025;-76
2023/06/27 10:00:20;;;;;;;6.78;1.92;;;;;;;20.65;53.80;101857.75;5042600;28;20095;-75
2023/06/27 10:02:47;;;;;;;7.25;2.53;;;;;;;20.73;53.45;101860.63;5058677;28;20084;-74
2023/06/27 10:05:12;;;;;;;5.05;2.10;;;;;;;20.73;52.98;101857.88;5061738;28;20094;-74
2023/06/27 10:07:39;;;;;;;10.15;2.25;;;;;;;20.78;50.92;101857.41;5061408;28;20049;-75
2023/06/27 10:10:07;;;;;;;4.70;1.80;;;;;;;20.81;52.45;101857.09;5034391;28;20053;-76
2023/06/27 10:12:33;;;;;;;5.43;1.90;;;;;;;20.87;52.72;101855.63;5026691;28;20021;-74
2023/06/27 10:14:59;;;;;;;8.93;2.38;;;;;;;20.95;52.41;101851.09;5038054;28;20067;-74
2023/06/27 10:17:26;;;;;;;6.38;2.38;;;;;;;21.01;51.15;101856.94;5041015;28;20025;-76
2023/06/27 10:19:53;;;;;;;6.40;2.33;;;;;;;21.03;48.97;101855.75;5049678;28;20047;-74
2023/06/27 10:22:21;;;;;;;6.25;1.88;;;;;;;21.05;50.82;101852.88;5033515;28;20013;-75
2023/06/27 10:24:48;;;;;;;6.32;2.22;;;;;;;21.05;55.20;101858.34;5054483;28;20017;-75
2023/06/27 10:27:19;;;;;;;6.93;2.30;;;;;;;21.02;53.47;101861.38;5041938;28;20036;-74
2023/06/27 10:29:44;;;;;;;7.15;2.00;;;;;;;21.00;49.34;101855.25;5060765;28;20051;-77
2023/06/27 10:32:10;;;;;;;8.32;2.30;;;;;;;20.97;49.50;101853.66;5057771;28;20497;-74
2023/06/27 10:34:43;;;;;;;8.32;2.17;;;;;;;21.02;49.25;101858.66;5072075;28;20064;-74
2023/06/27 10:37:13;;;;;;;5.90;2.10;;;;;;;21.06;53.83;101863.66;5056688;28;20059;-74
2023/06/27 10:39:40;;;;;;;9.15;2.28;;;;;;;21.04;48.54;101859.34;5062895;28;20009;-74
2023/06/27 10:42:06;;;;;;;12.48;2.78;;;;;;;20.98;47.80;101857.25;5058907;28;20058;-76
2023/06/27 10:44:48;;;;;;;4.75;1.88;;;;;;;21.01;49.46;101851.47;5078886;28;20018;-75
2023/06/27 10:47:17;;;;;;;10.32;2.75;;;;;;;21.09;50.09;101859.75;5082829;28;20035;-75
2023/06/27 10:49:52;;;;;;;9.43;2.55;;;;;;;21.11;50.00;101849.50;5081599;28;20032;-74
2023/06/27 10:52:25;;;;;;;9.18;2.50;;;;;;;21.08;49.25;101845.22;5059840;28;20029;-75
2023/06/27 10:55:18;;;;;;;3.25;1.70;;;;;;;21.05;49.80;101852.88;5058329;28;20143;-78
2023/06/27 10:58:02;;;;;;;8.38;2.08;;;;;;;20.92;49.31;101843.22;5069612;28;20094;-74
2023/06/27 11:00:31;;;;;;;6.15;1.98;;;;;;;20.92;49.39;101848.69;5059019;28;20106;-74
2023/06/27 11:02:58;;;;;;;7.38;2.20;;;;;;;20.94;50.97;101840.31;5074180;28;20037;-74
2023/06/27 11:05:36;;;;;;;10.50;2.53;;;;;;;20.99;48.14;101837.13;5056813;28;20043;-75
2023/06/27 11:08:02;;;;;;;8.13;2.08;;;;;;;21.06;50.13;101841.78;5078464;28;20028;-74
2023/06/27 11:10:29;;;;;;;5.20;1.90;;;;;;;21.08;45.67;101858.91;5080597;28;20209;-74
2023/06/27 11:13:18;;;;;;;8.30;2.03;;;;;;;21.11;45.79;101858.59;5082139;28;20044;-75
2023/06/27 11:15:45;;;;;;;13.93;2.22;;;;;;;21.16;48.58;101855.38;5061964;28;20039;-74
2023/06/27 11:18:15;;;;;;;3.38;1.77;;;;;;;21.21;49.36;101852.16;5061629;28;20028;-74